Ursa Minor — ICGH — position and weather

sailwx.info

Track history (hours):
 
Tides and Currents Weather Stations Pressure Air Temp Water Temp Dewpoint Dewpoint Depression Visibility Wind Speed Wind Dir Waves Ship Positions

Ursa Minor

Last reported at 2016-May-31 07:33 UTC. Time now 2016-May-31 07:50 UTC.
Position N 43°54' E 009°33'.

Length 205 m; draft 9 m.

Type: Ship. MMSI: 247082300.

Date/timePositionNaut miles runAvg speedWind from/ knotsBaromVisibWave heightAir tempDewpointWater temp
2016-May-31 07:33N 43°54' E 009°33'1010.0
2016-May-31 06:33N 43°46' E 009°42'19 9.3
2016-May-31 04:33N 43°31' E 009°59'9 9.1
2016-May-31 03:34N 43°24' E 010°06'9 8.9
2016-May-31 02:34N 43°16' E 010°12'9 9.4
2016-May-31 01:33N 43°08' E 010°18'1010.1
2016-May-31 00:33N 42°59' E 010°25'4210.3
2016-May-30 20:25N 42°25' E 010°59'14010.1
2016-May-30 06:32N 40°54' E 013°22'1010.3
2016-May-30 05:33N 40°48' E 013°33'1110.5
2016-May-30 04:33N 40°41' E 013°43'1010.5
2016-May-30 03:33N 40°34' E 013°53'1010.3
2016-May-30 02:33N 40°28' E 014°04'1110.0
2016-May-30 01:28N 40°22' E 014°16'125 9.0
2016-May-29 11:29N 38°36' E 015°43'1112.1
2016-May-29 10:32N 38°25' E 015°43'1110.7
2016-May-29 09:33N 38°15' E 015°39'9 9.5
2016-May-29 08:33N 38°06' E 015°36'1010.1
2016-May-29 07:33N 37°56' E 015°39'  
2016-May-25 15:16N 37°53' E 015°55'811.6
2016-May-25 14:33N 37°53' E 015°44'1212.1
2016-May-25 13:33N 38°03' E 015°35'1313.3
2016-May-25 12:33N 38°16' E 015°39'9 8.6
2016-May-25 11:34N 38°24' E 015°37'1211.6
2016-May-25 10:33N 38°34' E 015°29'1311.7
2016-May-25 09:29N 38°45' E 015°21'13412.3
2016-May-24 22:33N 40°39' E 013°48'1212.1
2016-May-24 21:33N 40°46' E 013°36'1211.9
2016-May-24 20:33N 40°54' E 013°23'1212.1
2016-May-24 19:32N 41°01' E 013°10'1312.3
2016-May-24 18:30N 41°09' E 012°57'1212.3
2016-May-24 17:33N 41°17' E 012°45'1612.5
2016-May-24 16:18N 41°27' E 012°29'912.1
2016-May-24 15:31N 41°33' E 012°20'14512.1
2016-May-24 03:31N 43°20' E 010°08'1111.1
2016-May-24 02:33N 43°30' E 010°01'1111.0
2016-May-24 01:33N 43°38' E 009°51'1110.8
2016-May-24 00:33N 43°46' E 009°41'1110.6
2016-May-23 23:34N 43°54' E 009°31'1110.7
2016-May-23 22:34N 44°02' E 009°21'1111.0
2016-May-23 21:33N 44°10' E 009°11'1111.2
2016-May-23 20:33N 44°18' E 008°60'8 8.4
2016-May-23 19:33N 44°24' E 008°52'0 0.2
2016-May-23 18:33N 44°24' E 008°52'0 0.0
2016-May-23 17:31N 44°24' E 008°52'0 0.0
2016-May-23 16:31N 44°24' E 008°52'0 0.0
2016-May-23 15:31N 44°24' E 008°52'0 0.0
2016-May-23 14:31N 44°24' E 008°52'0 0.0
2016-May-23 13:31N 44°24' E 008°52'0 0.0
2016-May-23 12:33N 44°24' E 008°52'0 0.1
2016-May-23 11:33N 44°24' E 008°52'0 0.2
2016-May-23 10:33N 44°24' E 008°52'8 8.2
2016-May-23 09:33N 44°19' E 009°01'1212.1
2016-May-23 08:33N 44°10' E 009°12'1212.2
2016-May-23 07:33N 44°01' E 009°23'1212.5
2016-May-23 06:33N 43°51' E 009°35'1312.5
2016-May-23 05:33N 43°42' E 009°46'1212.4
2016-May-23 04:33N 43°33' E 009°58'1212.4
2016-May-23 03:33N 43°22' E 010°07'1212.5
2016-May-23 02:33N 43°11' E 010°15'1312.6
2016-May-23 01:33N 43°00' E 010°24'1212.3
2016-May-23 00:33N 42°50' E 010°33'1212.2
2016-May-22 23:33N 42°40' E 010°42'1312.5
2016-May-22 22:33N 42°30' E 010°53'1812.3
2016-May-22 21:07N 42°19' E 011°11'712.6
2016-May-22 20:33N 42°14' E 011°18'1312.5
2016-May-22 19:33N 42°05' E 011°30'1212.3
2016-May-22 18:33N 41°57' E 011°43'1212.3
2016-May-22 17:33N 41°49' E 011°55'1612.4
2016-May-22 16:15N 41°38' E 012°11'912.4
2016-May-22 15:33N 41°33' E 012°20'1212.3
2016-May-22 14:33N 41°25' E 012°33'1212.2
2016-May-22 13:33N 41°17' E 012°45'1211.9
2016-May-22 12:33N 41°10' E 012°57'1211.9
2016-May-22 11:33N 41°02' E 013°09'1212.0
2016-May-22 10:33N 40°55' E 013°22'1212.3
2016-May-22 09:33N 40°46' E 013°34'1212.4
2016-May-22 08:33N 40°37' E 013°44'1212.0
2016-May-22 07:33N 40°29' E 013°56'1211.9
2016-May-22 06:33N 40°22' E 014°09'1212.1
2016-May-22 05:33N 40°12' E 014°17'11512.2
2016-May-21 20:09N 38°33' E 015°32'711.9
2016-May-21 19:32N 38°27' E 015°37'1111.1
2016-May-21 18:33N 38°16' E 015°43'1010.5
2016-May-21 17:33N 38°07' E 015°36'1110.8
2016-May-21 16:33N 37°57' E 015°39'1211.6
2016-May-21 15:33N 37°53' E 015°53'  
Track history (hours):
 
Tides and Currents Weather Stations Pressure Air Temp Water Temp Dewpoint Dewpoint Depression Visibility Wind Speed Wind Dir Waves Ship Positions

Ursa Minor

Last reported at 2016-May-31 07:33 UTC. Time now 2016-May-31 07:50 UTC.
Position N 43°54' E 009°33'.

Length 205 m; draft 9 m.

Type: Ship. MMSI: 247082300.

Date/timePositionNaut miles runAvg speedWind from/ knotsBaromVisibWave heightAir tempDewpointWater temp
2016-May-31 07:33N 43°54' E 009°33'1010.0
2016-May-31 06:33N 43°46' E 009°42'19 9.3
2016-May-31 04:33N 43°31' E 009°59'9 9.1
2016-May-31 03:34N 43°24' E 010°06'9 8.9
2016-May-31 02:34N 43°16' E 010°12'9 9.4
2016-May-31 01:33N 43°08' E 010°18'1010.1
2016-May-31 00:33N 42°59' E 010°25'4210.3
2016-May-30 20:25N 42°25' E 010°59'14010.1
2016-May-30 06:32N 40°54' E 013°22'1010.3
2016-May-30 05:33N 40°48' E 013°33'1110.5
2016-May-30 04:33N 40°41' E 013°43'1010.5
2016-May-30 03:33N 40°34' E 013°53'1010.3
2016-May-30 02:33N 40°28' E 014°04'1110.0
2016-May-30 01:28N 40°22' E 014°16'125 9.0
2016-May-29 11:29N 38°36' E 015°43'1112.1
2016-May-29 10:32N 38°25' E 015°43'1110.7
2016-May-29 09:33N 38°15' E 015°39'9 9.5
2016-May-29 08:33N 38°06' E 015°36'1010.1
2016-May-29 07:33N 37°56' E 015°39'  
2016-May-25 15:16N 37°53' E 015°55'811.6
2016-May-25 14:33N 37°53' E 015°44'1212.1
2016-May-25 13:33N 38°03' E 015°35'1313.3
2016-May-25 12:33N 38°16' E 015°39'9 8.6
2016-May-25 11:34N 38°24' E 015°37'1211.6
2016-May-25 10:33N 38°34' E 015°29'1311.7
2016-May-25 09:29N 38°45' E 015°21'13412.3
2016-May-24 22:33N 40°39' E 013°48'1212.1
2016-May-24 21:33N 40°46' E 013°36'1211.9
2016-May-24 20:33N 40°54' E 013°23'1212.1
2016-May-24 19:32N 41°01' E 013°10'1312.3
2016-May-24 18:30N 41°09' E 012°57'1212.3
2016-May-24 17:33N 41°17' E 012°45'1612.5
2016-May-24 16:18N 41°27' E 012°29'912.1
2016-May-24 15:31N 41°33' E 012°20'14512.1
2016-May-24 03:31N 43°20' E 010°08'1111.1
2016-May-24 02:33N 43°30' E 010°01'1111.0
2016-May-24 01:33N 43°38' E 009°51'1110.8
2016-May-24 00:33N 43°46' E 009°41'1110.6
2016-May-23 23:34N 43°54' E 009°31'1110.7
2016-May-23 22:34N 44°02' E 009°21'1111.0
2016-May-23 21:33N 44°10' E 009°11'1111.2
2016-May-23 20:33N 44°18' E 008°60'8 8.4
2016-May-23 19:33N 44°24' E 008°52'0 0.2
2016-May-23 18:33N 44°24' E 008°52'0 0.0
2016-May-23 17:31N 44°24' E 008°52'0 0.0
2016-May-23 16:31N 44°24' E 008°52'0 0.0
2016-May-23 15:31N 44°24' E 008°52'0 0.0
2016-May-23 14:31N 44°24' E 008°52'0 0.0
2016-May-23 13:31N 44°24' E 008°52'0 0.0
2016-May-23 12:33N 44°24' E 008°52'0 0.1
2016-May-23 11:33N 44°24' E 008°52'0 0.2
2016-May-23 10:33N 44°24' E 008°52'8 8.2
2016-May-23 09:33N 44°19' E 009°01'1212.1
2016-May-23 08:33N 44°10' E 009°12'1212.2
2016-May-23 07:33N 44°01' E 009°23'1212.5
2016-May-23 06:33N 43°51' E 009°35'1312.5
2016-May-23 05:33N 43°42' E 009°46'1212.4
2016-May-23 04:33N 43°33' E 009°58'1212.4
2016-May-23 03:33N 43°22' E 010°07'1212.5
2016-May-23 02:33N 43°11' E 010°15'1312.6
2016-May-23 01:33N 43°00' E 010°24'1212.3
2016-May-23 00:33N 42°50' E 010°33'1212.2
2016-May-22 23:33N 42°40' E 010°42'1312.5
2016-May-22 22:33N 42°30' E 010°53'1812.3
2016-May-22 21:07N 42°19' E 011°11'712.6
2016-May-22 20:33N 42°14' E 011°18'1312.5
2016-May-22 19:33N 42°05' E 011°30'1212.3
2016-May-22 18:33N 41°57' E 011°43'1212.3
2016-May-22 17:33N 41°49' E 011°55'1612.4
2016-May-22 16:15N 41°38' E 012°11'912.4
2016-May-22 15:33N 41°33' E 012°20'1212.3
2016-May-22 14:33N 41°25' E 012°33'1212.2
2016-May-22 13:33N 41°17' E 012°45'1211.9
2016-May-22 12:33N 41°10' E 012°57'1211.9
2016-May-22 11:33N 41°02' E 013°09'1212.0
2016-May-22 10:33N 40°55' E 013°22'1212.3
2016-May-22 09:33N 40°46' E 013°34'1212.4
2016-May-22 08:33N 40°37' E 013°44'1212.0
2016-May-22 07:33N 40°29' E 013°56'1211.9
2016-May-22 06:33N 40°22' E 014°09'1212.1
2016-May-22 05:33N 40°12' E 014°17'11512.2
2016-May-21 20:09N 38°33' E 015°32'711.9
2016-May-21 19:32N 38°27' E 015°37'1111.1
2016-May-21 18:33N 38°16' E 015°43'1010.5
2016-May-21 17:33N 38°07' E 015°36'1110.8
2016-May-21 16:33N 37°57' E 015°39'1211.6
2016-May-21 15:33N 37°53' E 015°53'  

Dump ship's entire track history